createdAt,value
2023-04-16T00:02:17.417Z,3.87
2023-04-16T00:04:45.046Z,3.84
2023-04-16T00:07:16.051Z,3.93
2023-04-16T00:09:43.472Z,3.86
2023-04-16T00:12:11.159Z,3.85
2023-04-16T00:14:38.845Z,3.83
2023-04-16T00:17:06.331Z,3.84
2023-04-16T00:19:33.963Z,3.82
2023-04-16T00:22:01.430Z,3.82
2023-04-16T00:24:28.931Z,3.77
2023-04-16T00:26:57.332Z,3.76
2023-04-16T00:29:24.865Z,3.78
2023-04-16T00:31:52.383Z,3.77
2023-04-16T00:34:19.810Z,3.73
2023-04-16T00:36:47.360Z,3.62
2023-04-16T00:39:14.833Z,3.67
2023-04-16T00:41:44.135Z,3.70
2023-04-16T00:44:11.582Z,3.67
2023-04-16T00:46:39.595Z,3.58
2023-04-16T00:49:07.191Z,3.61
2023-04-16T00:51:36.177Z,3.42
2023-04-16T00:54:04.567Z,3.65
2023-04-16T00:56:33.645Z,3.57
2023-04-16T00:59:01.707Z,3.57
2023-04-16T01:01:29.132Z,3.48
2023-04-16T01:03:57.178Z,3.48
2023-04-16T01:06:24.676Z,3.54
2023-04-16T01:08:52.223Z,3.53
2023-04-16T01:11:19.663Z,3.54
2023-04-16T01:13:47.123Z,3.55
2023-04-16T01:16:14.992Z,3.59
2023-04-16T01:18:42.665Z,3.59
2023-04-16T01:21:10.155Z,3.62
2023-04-16T01:23:37.668Z,3.59
2023-04-16T01:26:05.267Z,3.65
2023-04-16T01:28:32.760Z,3.66
2023-04-16T01:31:00.910Z,3.69
2023-04-16T01:33:40.990Z,3.70
2023-04-16T01:36:08.960Z,3.75
2023-04-16T01:38:36.635Z,3.76
2023-04-16T01:41:04.098Z,3.78
2023-04-16T01:43:31.505Z,3.82
2023-04-16T01:46:31.393Z,4.02
2023-04-16T01:48:59.167Z,3.89
2023-04-16T01:51:27.665Z,3.92
2023-04-16T01:53:55.782Z,3.92
2023-04-16T01:56:23.295Z,3.95
2023-04-16T01:58:51.002Z,4.03
2023-04-16T02:01:19.794Z,3.99
2023-04-16T02:03:48.548Z,4.09
2023-04-16T02:06:16.872Z,4.14
2023-04-16T02:08:44.491Z,4.23
2023-04-16T02:11:12.058Z,4.23
2023-04-16T02:13:39.782Z,4.28
2023-04-16T02:16:07.670Z,4.38
2023-04-16T02:18:53.011Z,4.51
2023-04-16T02:21:23.111Z,4.56
2023-04-16T02:23:52.204Z,4.67
2023-04-16T02:26:26.787Z,4.87
2023-04-16T02:28:56.975Z,5.47
2023-04-16T02:31:29.966Z,6.38
2023-04-16T02:33:58.535Z,7.39
2023-04-16T02:36:26.161Z,8.36
2023-04-16T02:38:54.478Z,9.21
2023-04-16T02:41:21.917Z,10.16
2023-04-16T02:43:49.476Z,10.79
2023-04-16T02:46:17.150Z,11.68
2023-04-16T02:48:44.858Z,12.31
2023-04-16T02:51:12.270Z,13.01
2023-04-16T02:53:40.337Z,13.66
2023-04-16T02:56:08.021Z,14.28
2023-04-16T02:58:35.570Z,14.88
2023-04-16T03:01:03.194Z,15.49
2023-04-16T03:03:30.782Z,15.99
2023-04-16T03:05:58.349Z,16.66
2023-04-16T03:08:26.040Z,17.05
2023-04-16T03:10:56.512Z,17.54
2023-04-16T03:13:23.927Z,17.98
2023-04-16T03:15:51.532Z,18.43
2023-04-16T03:18:19.129Z,19.00
2023-04-16T03:20:47.698Z,19.47
2023-04-16T03:23:18.167Z,19.71
2023-04-16T03:25:48.195Z,20.22
2023-04-16T03:28:18.562Z,20.54
2023-04-16T03:30:53.286Z,20.71
2023-04-16T03:33:21.549Z,21.36
2023-04-16T03:35:56.298Z,21.56
2023-04-16T03:38:26.120Z,22.09
2023-04-16T03:40:56.576Z,22.44
2023-04-16T03:43:24.314Z,22.79
2023-04-16T03:45:51.921Z,23.20
2023-04-16T03:48:22.586Z,23.48
2023-04-16T03:50:51.064Z,23.81
2023-04-16T03:53:20.650Z,24.04
2023-04-16T03:55:56.337Z,24.26
2023-04-16T03:58:24.560Z,24.70
2023-04-16T04:00:59.284Z,24.71
2023-04-16T04:03:32.487Z,25.10
2023-04-16T04:06:10.391Z,25.20
2023-04-16T04:08:38.398Z,25.63
2023-04-16T04:11:06.836Z,25.98
2023-04-16T04:13:35.732Z,26.26
2023-04-16T04:16:05.093Z,26.45
2023-04-16T04:18:33.514Z,26.73
2023-04-16T04:21:07.979Z,26.91
2023-04-16T04:23:45.029Z,26.97
2023-04-16T04:26:15.828Z,27.26
2023-04-16T04:28:46.336Z,27.55
2023-04-16T04:31:18.661Z,27.71
2023-04-16T04:33:46.808Z,27.88
2023-04-16T04:36:14.262Z,27.98
2023-04-16T04:38:42.683Z,28.03
2023-04-16T04:41:10.193Z,28.21
2023-04-16T04:43:39.068Z,28.38
2023-04-16T04:46:07.213Z,28.67
2023-04-16T04:48:34.911Z,29.00
2023-04-16T04:51:05.437Z,29.38
2023-04-16T04:53:36.768Z,29.45
2023-04-16T04:56:12.280Z,29.76
2023-04-16T04:58:41.747Z,29.94
2023-04-16T05:01:09.485Z,30.01
2023-04-16T05:03:37.019Z,30.15
2023-04-16T05:06:04.789Z,30.28
2023-04-16T05:08:32.201Z,30.32
2023-04-16T05:10:59.773Z,30.52
2023-04-16T05:13:27.394Z,30.59
2023-04-16T05:15:55.098Z,30.74
2023-04-16T05:18:22.490Z,30.77
2023-04-16T05:20:49.968Z,30.94
2023-04-16T05:23:17.448Z,31.03
2023-04-16T05:25:44.909Z,31.09
2023-04-16T05:28:12.348Z,31.25
2023-04-16T05:30:39.823Z,31.34
2023-04-16T05:33:07.325Z,31.45
2023-04-16T05:35:35.417Z,31.57
2023-04-16T05:38:04.764Z,31.79
2023-04-16T05:40:32.676Z,31.76
2023-04-16T05:43:00.352Z,31.74
2023-04-16T05:45:28.194Z,31.82
2023-04-16T05:47:55.894Z,31.88
2023-04-16T05:50:23.439Z,31.97
2023-04-16T05:52:50.898Z,32.18
2023-04-16T05:55:18.408Z,32.39
2023-04-16T05:57:45.897Z,32.24
2023-04-16T06:00:13.552Z,31.91
2023-04-16T06:02:41.586Z,31.98
2023-04-16T06:05:10.714Z,32.01
2023-04-16T06:07:41.267Z,32.07
2023-04-16T06:10:11.995Z,32.17
2023-04-16T06:12:39.543Z,32.48
2023-04-16T06:15:10.081Z,32.55
2023-04-16T06:17:37.694Z,32.73
2023-04-16T06:20:05.734Z,32.78
2023-04-16T06:22:33.246Z,32.77
2023-04-16T06:25:01.247Z,32.91
2023-04-16T06:27:28.988Z,32.50
2023-04-16T06:29:57.784Z,32.52
2023-04-16T06:32:25.791Z,32.49
2023-04-16T06:34:53.328Z,31.73
2023-04-16T06:37:21.185Z,31.14
2023-04-16T06:39:48.636Z,31.52
2023-04-16T06:42:16.175Z,31.73
2023-04-16T06:44:43.841Z,31.93
2023-04-16T06:47:11.554Z,32.22
2023-04-16T06:49:40.187Z,32.37
2023-04-16T06:52:07.838Z,32.37
2023-04-16T06:54:35.577Z,32.24
2023-04-16T06:57:03.067Z,32.42
2023-04-16T06:59:30.562Z,32.53
2023-04-16T07:01:58.344Z,32.41
2023-04-16T07:04:26.307Z,31.56
2023-04-16T07:06:53.797Z,30.90
2023-04-16T07:09:24.616Z,30.72
2023-04-16T07:11:52.242Z,31.11
2023-04-16T07:14:19.765Z,30.56
2023-04-16T07:16:47.284Z,29.78
2023-04-16T07:19:15.039Z,29.11
2023-04-16T07:21:46.390Z,28.34
2023-04-16T07:24:14.090Z,28.28
2023-04-16T07:26:41.825Z,28.49
2023-04-16T07:29:09.468Z,28.53
2023-04-16T07:31:37.391Z,28.48
2023-04-16T07:34:05.045Z,28.23
2023-04-16T07:36:32.636Z,27.88
2023-04-16T07:39:00.138Z,26.87
2023-04-16T07:41:29.753Z,26.29
2023-04-16T07:43:57.998Z,25.80
2023-04-16T07:46:30.413Z,25.63
2023-04-16T07:49:00.881Z,25.39
2023-04-16T07:51:28.456Z,25.23
2023-04-16T07:53:56.027Z,25.13
2023-04-16T07:56:23.497Z,24.90
2023-04-16T07:58:51.049Z,24.68
2023-04-16T08:01:18.483Z,24.26
2023-04-16T08:03:46.380Z,23.80
2023-04-16T08:06:13.947Z,23.42
2023-04-16T08:08:41.754Z,23.18
2023-04-16T08:11:09.439Z,22.91
2023-04-16T08:13:37.131Z,22.82
2023-04-16T08:16:07.743Z,22.76
2023-04-16T08:18:35.339Z,22.57
2023-04-16T08:21:02.979Z,22.43
2023-04-16T08:23:30.660Z,22.36
2023-04-16T08:25:58.118Z,22.11
2023-04-16T08:28:25.692Z,21.98
2023-04-16T08:30:53.434Z,21.89
2023-04-16T08:33:21.937Z,21.97
2023-04-16T08:35:49.398Z,21.71
2023-04-16T08:38:18.658Z,21.36
2023-04-16T08:40:47.412Z,21.19
2023-04-16T08:43:16.605Z,21.02
2023-04-16T08:45:45.088Z,20.87
2023-04-16T08:48:12.832Z,20.65
2023-04-16T08:50:41.594Z,20.60
2023-04-16T08:53:23.967Z,20.30
2023-04-16T08:55:58.454Z,19.88
2023-04-16T08:58:36.002Z,19.60
2023-04-16T09:01:07.074Z,19.40
2023-04-16T09:03:36.597Z,19.20
2023-04-16T09:06:05.183Z,18.90
2023-04-16T09:08:36.329Z,18.87
2023-04-16T09:11:04.886Z,18.58
2023-04-16T09:13:32.598Z,18.37
2023-04-16T09:16:03.882Z,18.10
2023-04-16T09:18:34.013Z,17.93
2023-04-16T09:21:06.600Z,17.71
2023-04-16T09:23:34.058Z,17.62
2023-04-16T09:26:01.688Z,17.30
2023-04-16T09:28:47.381Z,17.28
2023-04-16T09:31:17.513Z,16.70
2023-04-16T09:34:04.400Z,17.05
2023-04-16T09:36:32.956Z,16.45
2023-04-16T09:39:01.145Z,16.32
2023-04-16T09:41:31.526Z,16.21
2023-04-16T09:44:07.237Z,16.16
2023-04-16T09:46:42.372Z,15.93
2023-04-16T09:49:21.580Z,15.98
2023-04-16T09:51:54.940Z,15.61
2023-04-16T09:54:22.417Z,15.36
2023-04-16T09:56:49.836Z,15.21
2023-04-16T09:59:18.484Z,14.85
2023-04-16T10:01:49.953Z,14.51
2023-04-16T10:04:18.019Z,14.44
2023-04-16T10:06:48.744Z,14.36
2023-04-16T10:09:16.441Z,14.22
2023-04-16T10:11:44.166Z,14.23
2023-04-16T10:14:14.430Z,14.10
2023-04-16T10:16:42.273Z,14.03
2023-04-16T10:19:10.269Z,13.98
2023-04-16T10:21:38.297Z,13.93
2023-04-16T10:24:06.212Z,13.62
2023-04-16T10:26:34.298Z,13.60
2023-04-16T10:29:03.208Z,13.65
2023-04-16T10:31:31.624Z,13.49
2023-04-16T10:33:59.804Z,13.52
2023-04-16T10:36:27.505Z,13.48
2023-04-16T10:39:00.214Z,13.63
2023-04-16T10:41:27.932Z,13.36
2023-04-16T10:44:12.629Z,13.56
2023-04-16T10:46:42.436Z,13.31
2023-04-16T10:49:20.554Z,13.43
2023-04-16T10:51:58.279Z,13.36
2023-04-16T10:54:28.526Z,13.01
2023-04-16T10:57:06.453Z,13.05
2023-04-16T10:59:38.748Z,12.83
2023-04-16T11:02:16.627Z,13.02
2023-04-16T11:04:50.840Z,12.91
2023-04-16T11:07:20.835Z,12.84
2023-04-16T11:09:59.707Z,12.90
2023-04-16T11:12:51.013Z,12.77
2023-04-16T11:15:22.226Z,12.68
2023-04-16T11:17:52.071Z,12.66
2023-04-16T11:20:27.202Z,12.65
2023-04-16T11:22:56.904Z,12.67
2023-04-16T11:25:30.281Z,12.72
2023-04-16T11:28:01.662Z,12.39
2023-04-16T11:30:30.786Z,12.48
2023-04-16T11:32:58.462Z,12.38
2023-04-16T11:35:26.056Z,12.30
2023-04-16T11:38:00.203Z,12.32
2023-04-16T11:40:31.750Z,12.23
2023-04-16T11:43:17.888Z,12.42
2023-04-16T11:46:16.740Z,12.40
2023-04-16T11:48:54.152Z,12.33
2023-04-16T11:51:23.760Z,12.21
2023-04-16T11:53:53.520Z,12.20
2023-04-16T11:56:30.979Z,12.35
2023-04-16T11:59:20.779Z,12.40
2023-04-16T12:01:51.583Z,12.20
2023-04-16T12:04:25.158Z,12.22
2023-04-16T12:07:13.265Z,12.42
2023-04-16T12:09:42.638Z,12.11
2023-04-16T12:12:27.638Z,12.31
2023-04-16T12:14:57.125Z,12.07
2023-04-16T12:17:25.296Z,12.04
2023-04-16T12:19:57.150Z,12.06
2023-04-16T12:22:35.983Z,12.12
2023-04-16T12:25:11.438Z,12.11
2023-04-16T12:27:53.306Z,12.02
2023-04-16T12:30:28.786Z,12.04
2023-04-16T12:33:18.829Z,12.17
2023-04-16T12:35:46.720Z,11.77
2023-04-16T12:38:15.742Z,11.76
2023-04-16T12:40:43.537Z,11.61
2023-04-16T12:43:11.466Z,11.59
2023-04-16T12:45:39.895Z,11.62
2023-04-16T12:48:07.821Z,11.25
2023-04-16T12:50:39.869Z,11.32
2023-04-16T12:53:09.670Z,11.37
2023-04-16T12:55:37.267Z,11.35
2023-04-16T12:58:07.149Z,11.40
2023-04-16T13:00:34.723Z,11.30
2023-04-16T13:03:02.400Z,11.28
2023-04-16T13:05:30.005Z,11.41
2023-04-16T13:07:57.650Z,11.29
2023-04-16T13:10:25.312Z,11.08
2023-04-16T13:12:53.038Z,11.23
2023-04-16T13:15:20.760Z,11.14
2023-04-16T13:17:48.567Z,11.19
2023-04-16T13:20:16.349Z,11.16
2023-04-16T13:22:43.823Z,11.19
2023-04-16T13:25:14.341Z,11.16
2023-04-16T13:27:41.852Z,11.12
2023-04-16T13:30:12.595Z,11.13
2023-04-16T13:32:41.135Z,11.05
2023-04-16T13:35:13.304Z,11.09
2023-04-16T13:37:42.230Z,11.00
2023-04-16T13:40:14.806Z,10.96
2023-04-16T13:43:11.845Z,10.99
2023-04-16T13:45:39.729Z,10.80
2023-04-16T13:48:07.238Z,10.91
2023-04-16T13:50:35.446Z,10.83
2023-04-16T13:53:03.046Z,10.86
2023-04-16T13:55:32.288Z,10.88
2023-04-16T13:58:00.112Z,10.79
2023-04-16T14:00:27.920Z,10.64
2023-04-16T14:02:55.726Z,10.66
2023-04-16T14:05:25.797Z,10.62
2023-04-16T14:07:54.715Z,10.64
2023-04-16T14:10:22.145Z,10.48
2023-04-16T14:12:49.875Z,10.49
2023-04-16T14:15:17.798Z,10.46
2023-04-16T14:17:45.647Z,10.45
2023-04-16T14:20:14.380Z,10.44
2023-04-16T14:22:42.741Z,10.41
2023-04-16T14:25:10.413Z,10.36
2023-04-16T14:27:37.930Z,10.31
2023-04-16T14:30:06.432Z,10.25
2023-04-16T14:32:36.655Z,10.23
2023-04-16T14:35:04.666Z,10.20
2023-04-16T14:37:36.556Z,10.17
2023-04-16T14:40:09.112Z,10.08
2023-04-16T14:42:37.800Z,10.12
2023-04-16T14:45:09.131Z,10.03
2023-04-16T14:47:38.453Z,9.90
2023-04-16T14:50:06.758Z,9.95
2023-04-16T14:52:34.474Z,9.87
2023-04-16T14:55:02.080Z,9.66
2023-04-16T14:57:30.204Z,9.57
2023-04-16T14:59:57.733Z,9.58
2023-04-16T15:02:26.762Z,9.56
2023-04-16T15:04:54.983Z,9.55
2023-04-16T15:07:22.555Z,9.56
2023-04-16T15:09:50.142Z,9.52
2023-04-16T15:12:19.147Z,9.51
2023-04-16T15:14:46.724Z,9.53
2023-04-16T15:17:14.267Z,9.57
2023-04-16T15:19:41.699Z,9.52
2023-04-16T15:22:09.278Z,9.51
2023-04-16T15:24:36.767Z,9.50
2023-04-16T15:27:06.184Z,9.49
2023-04-16T15:29:33.724Z,9.50
2023-04-16T15:32:01.402Z,9.47
2023-04-16T15:34:28.813Z,9.45
2023-04-16T15:36:57.038Z,9.37
2023-04-16T15:39:24.594Z,9.28
2023-04-16T15:42:01.234Z,9.27
2023-04-16T15:44:31.847Z,9.28
2023-04-16T15:46:59.777Z,9.20
2023-04-16T15:49:27.455Z,9.20
2023-04-16T15:51:56.298Z,9.14
2023-04-16T15:54:26.848Z,9.13
2023-04-16T15:56:54.418Z,9.05
2023-04-16T15:59:24.512Z,9.04
2023-04-16T16:01:52.080Z,8.94
2023-04-16T16:04:21.737Z,8.92
2023-04-16T16:06:55.300Z,8.85
2023-04-16T16:09:26.946Z,8.77
2023-04-16T16:11:57.459Z,8.76
2023-04-16T16:14:24.965Z,8.71
2023-04-16T16:16:55.022Z,8.66
2023-04-16T16:19:22.528Z,8.62
2023-04-16T16:21:50.507Z,8.50
2023-04-16T16:24:18.612Z,8.46
2023-04-16T16:26:46.132Z,8.44
2023-04-16T16:29:13.939Z,8.45
2023-04-16T16:31:41.640Z,8.43
2023-04-16T16:34:11.121Z,8.37
2023-04-16T16:36:47.246Z,8.44
2023-04-16T16:39:14.938Z,8.41
2023-04-16T16:41:43.317Z,8.38
2023-04-16T16:44:11.246Z,8.31
2023-04-16T16:46:38.748Z,8.18
2023-04-16T16:49:07.257Z,8.14
2023-04-16T16:51:34.993Z,8.00
2023-04-16T16:54:05.566Z,8.04
2023-04-16T16:56:33.076Z,8.06
2023-04-16T16:59:02.186Z,8.14
2023-04-16T17:01:30.263Z,8.00
2023-04-16T17:03:58.300Z,7.96
2023-04-16T17:06:26.903Z,7.96
2023-04-16T17:08:55.350Z,7.94
2023-04-16T17:11:22.795Z,7.92
2023-04-16T17:13:52.086Z,7.88
2023-04-16T17:16:19.782Z,7.84
2023-04-16T17:18:51.125Z,7.96
2023-04-16T17:21:21.328Z,8.31
2023-04-16T17:23:48.780Z,7.96
2023-04-16T17:26:16.399Z,7.83
2023-04-16T17:28:43.932Z,7.84
2023-04-16T17:31:12.363Z,7.82
2023-04-16T17:33:40.297Z,7.86
2023-04-16T17:36:08.123Z,7.80
2023-04-16T17:38:35.827Z,7.72
2023-04-16T17:41:03.950Z,7.84
2023-04-16T17:43:31.353Z,7.75
2023-04-16T17:45:59.049Z,7.77
2023-04-16T17:48:26.635Z,7.76
2023-04-16T17:50:54.203Z,7.70
2023-04-16T17:53:22.508Z,7.64
2023-04-16T17:55:56.009Z,7.78
2023-04-16T17:58:26.739Z,7.64
2023-04-16T18:00:54.279Z,7.67
2023-04-16T18:03:22.207Z,7.62
2023-04-16T18:05:50.130Z,7.59
2023-04-16T18:08:17.637Z,7.60
2023-04-16T18:10:47.766Z,7.59
2023-04-16T18:13:17.042Z,7.59
2023-04-16T18:15:44.671Z,7.58
2023-04-16T18:18:12.242Z,7.57
2023-04-16T18:20:42.434Z,7.53
2023-04-16T18:23:10.143Z,7.48
2023-04-16T18:25:38.140Z,7.49
2023-04-16T18:28:07.599Z,7.48
2023-04-16T18:30:35.964Z,7.43
2023-04-16T18:33:25.282Z,7.42
2023-04-16T18:35:51.078Z,7.40
2023-04-16T18:38:18.526Z,7.39
2023-04-16T18:40:47.185Z,7.36
2023-04-16T18:43:14.672Z,7.36
2023-04-16T18:45:42.272Z,7.30
2023-04-16T18:48:09.684Z,7.29
2023-04-16T18:50:37.124Z,7.28
2023-04-16T18:53:04.666Z,7.28
2023-04-16T18:55:32.119Z,7.18
2023-04-16T18:58:01.925Z,7.18
2023-04-16T19:00:29.472Z,7.15
2023-04-16T19:02:57.087Z,7.13
2023-04-16T19:05:24.606Z,7.15
2023-04-16T19:07:52.084Z,7.16
2023-04-16T19:10:19.681Z,7.14
2023-04-16T19:12:47.099Z,7.04
2023-04-16T19:15:15.120Z,7.01
2023-04-16T19:17:42.706Z,7.02
2023-04-16T19:20:11.674Z,7.00
2023-04-16T19:22:39.406Z,6.97
2023-04-16T19:25:07.533Z,6.93
2023-04-16T19:27:35.241Z,6.93
2023-04-16T19:30:03.568Z,6.87
2023-04-16T19:32:31.499Z,6.89
2023-04-16T19:34:59.226Z,6.84
2023-04-16T19:37:27.421Z,6.81
2023-04-16T19:39:55.369Z,6.72
2023-04-16T19:42:22.785Z,6.73
2023-04-16T19:44:50.263Z,6.71
2023-04-16T19:47:20.382Z,6.65
2023-04-16T19:49:47.919Z,6.69
2023-04-16T19:52:16.660Z,6.63
2023-04-16T19:54:44.196Z,6.62
2023-04-16T19:57:11.679Z,6.55
2023-04-16T19:59:39.437Z,6.52
2023-04-16T20:02:07.461Z,6.56
2023-04-16T20:04:35.681Z,6.53
2023-04-16T20:07:06.203Z,6.54
2023-04-16T20:09:33.659Z,6.47
2023-04-16T20:12:02.295Z,6.44
2023-04-16T20:14:33.195Z,6.37
2023-04-16T20:17:02.208Z,6.38
2023-04-16T20:19:38.090Z,6.36
2023-04-16T20:22:06.869Z,6.34
2023-04-16T20:24:36.235Z,6.33
2023-04-16T20:27:03.809Z,6.33
2023-04-16T20:29:31.553Z,6.23
2023-04-16T20:31:59.840Z,6.17
2023-04-16T20:34:30.293Z,6.18
2023-04-16T20:36:58.275Z,6.07
2023-04-16T20:39:28.637Z,6.05
2023-04-16T20:41:58.867Z,6.05
2023-04-16T20:44:33.433Z,5.91
2023-04-16T20:47:01.062Z,5.92
2023-04-16T20:49:30.411Z,5.95
2023-04-16T20:51:57.841Z,5.90
2023-04-16T20:54:25.296Z,5.86
2023-04-16T20:56:52.732Z,5.84
2023-04-16T20:59:20.298Z,5.82
2023-04-16T21:01:48.080Z,5.79
2023-04-16T21:04:17.172Z,5.69
2023-04-16T21:06:45.639Z,5.69
2023-04-16T21:09:13.751Z,5.60
2023-04-16T21:11:42.793Z,5.52
2023-04-16T21:14:10.314Z,5.51
2023-04-16T21:16:37.874Z,5.52
2023-04-16T21:19:06.971Z,5.47
2023-04-16T21:21:34.435Z,5.56
2023-04-16T21:24:01.961Z,5.46
2023-04-16T21:26:29.298Z,5.32
2023-04-16T21:28:56.797Z,5.36
2023-04-16T21:31:26.996Z,5.39
2023-04-16T21:33:54.723Z,5.35
2023-04-16T21:36:22.657Z,5.26
2023-04-16T21:38:50.107Z,5.32
2023-04-16T21:41:17.574Z,5.29
2023-04-16T21:43:44.984Z,5.24
2023-04-16T21:46:12.406Z,5.22
2023-04-16T21:48:39.895Z,5.18
2023-04-16T21:51:08.350Z,5.13
2023-04-16T21:53:39.357Z,5.03
2023-04-16T21:56:08.169Z,5.14
2023-04-16T21:58:36.186Z,5.09
2023-04-16T22:01:03.793Z,5.04
2023-04-16T22:03:31.484Z,5.00
2023-04-16T22:06:02.272Z,5.13
2023-04-16T22:08:32.397Z,5.01
2023-04-16T22:11:02.134Z,5.11
2023-04-16T22:13:32.717Z,5.06
2023-04-16T22:16:03.694Z,4.97
2023-04-16T22:18:34.437Z,4.91
2023-04-16T22:21:02.324Z,4.90
2023-04-16T22:23:29.825Z,4.78
2023-04-16T22:25:59.459Z,4.78
2023-04-16T22:28:27.565Z,4.67
2023-04-16T22:30:57.878Z,4.74
2023-04-16T22:33:25.423Z,4.73
2023-04-16T22:35:52.878Z,4.73
2023-04-16T22:38:20.228Z,4.69
2023-04-16T22:40:49.254Z,4.70
2023-04-16T22:43:17.872Z,4.70
2023-04-16T22:45:46.696Z,4.60
2023-04-16T22:48:14.334Z,4.67
2023-04-16T22:50:48.734Z,4.71
2023-04-16T22:53:16.350Z,4.59
2023-04-16T22:55:43.797Z,4.56
2023-04-16T22:58:11.353Z,4.55
2023-04-16T23:00:38.801Z,4.49
2023-04-16T23:03:06.374Z,4.55
2023-04-16T23:05:34.881Z,4.50
2023-04-16T23:08:02.295Z,4.44
2023-04-16T23:10:29.782Z,4.36
2023-04-16T23:12:57.294Z,4.44
2023-04-16T23:15:24.732Z,4.42
2023-04-16T23:17:52.464Z,4.29
2023-04-16T23:20:20.084Z,4.38
2023-04-16T23:22:47.635Z,4.34
2023-04-16T23:25:15.099Z,4.38
2023-04-16T23:27:42.517Z,4.34
2023-04-16T23:30:10.358Z,4.43
2023-04-16T23:32:38.040Z,4.38
2023-04-16T23:35:05.992Z,4.35
2023-04-16T23:37:33.387Z,4.31
2023-04-16T23:40:00.914Z,4.24
2023-04-16T23:42:28.849Z,4.29
2023-04-16T23:44:56.285Z,4.20
2023-04-16T23:47:23.892Z,4.21
2023-04-16T23:49:51.353Z,4.19
2023-04-16T23:52:18.969Z,4.19
2023-04-16T23:54:46.521Z,4.15
2023-04-16T23:57:14.012Z,4.12
2023-04-16T23:59:41.539Z,4.06
